sensor_id;sensor_type;location;lat;lon;timestamp;pressure;altitude;pressure_sealevel;temperature;humidity
7018;BME280;3549;42.162;24.726;2023-07-20T00:01:57;47342.25;;;-141.97;52.31
7018;BME280;3549;42.162;24.726;2023-07-20T00:04:23;47338.41;;;-141.97;52.23
7018;BME280;3549;42.162;24.726;2023-07-20T00:06:48;47340.34;;;-141.97;52.13
7018;BME280;3549;42.162;24.726;2023-07-20T00:09:14;47290.38;;;-141.97;51.78
7018;BME280;3549;42.162;24.726;2023-07-20T00:11:39;47273.06;;;-141.97;52.13
7018;BME280;3549;42.162;24.726;2023-07-20T00:14:05;47349.94;;;-141.97;51.34
7018;BME280;3549;42.162;24.726;2023-07-20T00:16:31;47334.56;;;-141.97;50.52
7018;BME280;3549;42.162;24.726;2023-07-20T00:18:56;47336.50;;;-141.97;49.94
7018;BME280;3549;42.162;24.726;2023-07-20T00:21:21;47313.44;;;-141.97;49.00
7018;BME280;3549;42.162;24.726;2023-07-20T00:23:47;47338.41;;;-141.97;49.00
7018;BME280;3549;42.162;24.726;2023-07-20T00:26:12;47299.97;;;-141.97;47.95
7018;BME280;3549;42.162;24.726;2023-07-20T00:28:37;47315.34;;;-141.97;47.76
7018;BME280;3549;42.162;24.726;2023-07-20T00:31:04;47275.00;;;-141.97;47.72
7018;BME280;3549;42.162;24.726;2023-07-20T00:33:29;47326.88;;;-141.97;47.25
7018;BME280;3549;42.162;24.726;2023-07-20T00:35:55;47319.19;;;-141.97;47.12
7018;BME280;3549;42.162;24.726;2023-07-20T00:38:20;47299.97;;;-141.97;47.14
7018;BME280;3549;42.162;24.726;2023-07-20T00:40:46;47315.34;;;-141.97;46.84
7018;BME280;3549;42.162;24.726;2023-07-20T00:43:11;47319.19;;;-141.97;46.63
7018;BME280;3549;42.162;24.726;2023-07-20T00:45:37;47292.28;;;-141.97;46.63
7018;BME280;3549;42.162;24.726;2023-07-20T00:48:04;47324.97;;;-141.97;46.29
7018;BME280;3549;42.162;24.726;2023-07-20T00:50:32;47296.13;;;-141.97;45.75
7018;BME280;3549;42.162;24.726;2023-07-20T00:52:59;47296.13;;;-141.97;45.24
7018;BME280;3549;42.162;24.726;2023-07-20T00:55:25;47332.66;;;-141.97;44.84
7018;BME280;3549;42.162;24.726;2023-07-20T00:57:51;47253.84;;;-141.97;44.93
7018;BME280;3549;42.162;24.726;2023-07-20T01:00:16;47315.34;;;-141.97;45.03
7018;BME280;3549;42.162;24.726;2023-07-20T01:02:42;47311.50;;;-141.97;45.00
7018;BME280;3549;42.162;24.726;2023-07-20T01:05:07;47311.50;;;-141.97;45.00
7018;BME280;3549;42.162;24.726;2023-07-20T01:10:24;47294.22;;;-141.97;45.28
7018;BME280;3549;42.162;24.726;2023-07-20T01:12:55;47365.31;;;-141.97;45.21
7018;BME280;3549;42.162;24.726;2023-07-20T01:15:20;47299.97;;;-141.97;44.71
7018;BME280;3549;42.162;24.726;2023-07-20T01:17:46;47284.59;;;-141.97;45.01
7018;BME280;3549;42.162;24.726;2023-07-20T01:20:15;47286.53;;;-141.97;44.81
7018;BME280;3549;42.162;24.726;2023-07-20T01:25:25;47288.44;;;-141.97;44.25
7018;BME280;3549;42.162;24.726;2023-07-20T01:33:31;47311.50;;;-141.97;44.57
7018;BME280;3549;42.162;24.726;2023-07-20T01:35:59;47346.09;;;-141.97;45.10
7018;BME280;3549;42.162;24.726;2023-07-20T01:38:26;47303.81;;;-141.97;44.85
7018;BME280;3549;42.162;24.726;2023-07-20T01:40:52;47313.44;;;-141.97;44.78
7018;BME280;3549;42.162;24.726;2023-07-20T01:43:18;47265.38;;;-141.97;44.68
7018;BME280;3549;42.162;24.726;2023-07-20T01:45:43;47326.88;;;-141.97;44.94
7018;BME280;3549;42.162;24.726;2023-07-20T01:48:09;47321.13;;;-141.97;44.90
7018;BME280;3549;42.162;24.726;2023-07-20T01:50:34;47292.28;;;-141.97;45.68
7018;BME280;3549;42.162;24.726;2023-07-20T01:53:01;47303.81;;;-141.97;45.54
7018;BME280;3549;42.162;24.726;2023-07-20T01:55:26;47321.13;;;-141.97;46.01
7018;BME280;3549;42.162;24.726;2023-07-20T01:57:52;47319.19;;;-141.97;45.80
7018;BME280;3549;42.162;24.726;2023-07-20T02:00:18;47298.06;;;-141.97;46.01
7018;BME280;3549;42.162;24.726;2023-07-20T02:02:46;47382.63;;;-141.97;45.87
7018;BME280;3549;42.162;24.726;2023-07-20T02:05:12;47296.13;;;-141.97;45.32
7018;BME280;3549;42.162;24.726;2023-07-20T02:07:37;47307.66;;;-141.97;45.87
7018;BME280;3549;42.162;24.726;2023-07-20T02:10:03;47422.97;;;-141.97;45.77
7018;BME280;3549;42.162;24.726;2023-07-20T02:12:28;47330.72;;;-141.97;46.09
7018;BME280;3549;42.162;24.726;2023-07-20T02:14:54;47353.78;;;-141.97;46.04
7018;BME280;3549;42.162;24.726;2023-07-20T02:17:19;47338.41;;;-141.97;45.02
7018;BME280;3549;42.162;24.726;2023-07-20T02:19:45;47290.38;;;-141.97;45.87
7018;BME280;3549;42.162;24.726;2023-07-20T02:22:10;47303.81;;;-141.97;46.71
7018;BME280;3549;42.162;24.726;2023-07-20T02:24:36;47330.72;;;-141.97;46.96
7018;BME280;3549;42.162;24.726;2023-07-20T02:27:01;47253.84;;;-141.97;46.85
7018;BME280;3549;42.162;24.726;2023-07-20T02:29:26;47336.50;;;-141.97;46.94
7018;BME280;3549;42.162;24.726;2023-07-20T02:31:52;47324.97;;;-141.97;47.29
7018;BME280;3549;42.162;24.726;2023-07-20T02:34:17;47328.81;;;-141.97;47.49
7018;BME280;3549;42.162;24.726;2023-07-20T02:36:43;47338.41;;;-141.97;47.48
7018;BME280;3549;42.162;24.726;2023-07-20T02:39:09;47330.72;;;-141.97;47.02
7018;BME280;3549;42.162;24.726;2023-07-20T02:41:35;47332.66;;;-141.97;47.67
7018;BME280;3549;42.162;24.726;2023-07-20T02:44:00;47338.41;;;-141.97;47.46
7018;BME280;3549;42.162;24.726;2023-07-20T02:46:27;47311.50;;;-141.97;46.88
7018;BME280;3549;42.162;24.726;2023-07-20T02:48:55;47250.00;;;-141.97;46.79
7018;BME280;3549;42.162;24.726;2023-07-20T02:51:21;47342.25;;;-141.97;46.60
7018;BME280;3549;42.162;24.726;2023-07-20T02:53:46;47323.03;;;-141.97;47.61
7018;BME280;3549;42.162;24.726;2023-07-20T02:56:11;47326.88;;;-141.97;47.67
7018;BME280;3549;42.162;24.726;2023-07-20T02:58:41;47330.72;;;-141.97;47.74
7018;BME280;3549;42.162;24.726;2023-07-20T03:01:08;47305.75;;;-141.97;47.85
7018;BME280;3549;42.162;24.726;2023-07-20T03:03:36;47326.88;;;-141.97;47.84
7018;BME280;3549;42.162;24.726;2023-07-20T03:06:04;47319.19;;;-141.97;48.42
7018;BME280;3549;42.162;24.726;2023-07-20T03:08:30;47317.28;;;-141.97;48.16
7018;BME280;3549;42.162;24.726;2023-07-20T03:10:55;47357.63;;;-141.97;48.46
7018;BME280;3549;42.162;24.726;2023-07-20T03:13:20;47319.19;;;-141.97;48.30
7018;BME280;3549;42.162;24.726;2023-07-20T03:15:46;47357.63;;;-141.97;48.65
7018;BME280;3549;42.162;24.726;2023-07-20T03:18:11;47338.41;;;-141.97;48.49
7018;BME280;3549;42.162;24.726;2023-07-20T03:20:38;47307.66;;;-141.97;48.39
7018;BME280;3549;42.162;24.726;2023-07-20T03:23:04;47344.19;;;-141.97;48.30
7018;BME280;3549;42.162;24.726;2023-07-20T03:25:29;47349.94;;;-141.97;48.35
7018;BME280;3549;42.162;24.726;2023-07-20T03:27:55;47355.72;;;-141.97;48.03
7018;BME280;3549;42.162;24.726;2023-07-20T03:30:20;47290.38;;;-141.97;47.90
7018;BME280;3549;42.162;24.726;2023-07-20T03:32:45;47357.63;;;-141.97;47.94
7018;BME280;3549;42.162;24.726;2023-07-20T03:35:11;47342.25;;;-141.97;47.63
7018;BME280;3549;42.162;24.726;2023-07-20T03:37:36;47355.72;;;-141.97;48.01
7018;BME280;3549;42.162;24.726;2023-07-20T03:40:03;47361.47;;;-141.97;47.37
7018;BME280;3549;42.162;24.726;2023-07-20T03:42:30;47363.41;;;-141.97;48.12
7018;BME280;3549;42.162;24.726;2023-07-20T03:44:55;47336.50;;;-141.97;47.82
7018;BME280;3549;42.162;24.726;2023-07-20T03:47:21;47301.91;;;-141.97;48.02
7018;BME280;3549;42.162;24.726;2023-07-20T03:49:46;47313.44;;;-141.97;47.29
7018;BME280;3549;42.162;24.726;2023-07-20T03:52:12;47288.44;;;-141.97;47.67
7018;BME280;3549;42.162;24.726;2023-07-20T03:54:37;47330.72;;;-141.97;47.71
7018;BME280;3549;42.162;24.726;2023-07-20T03:57:03;47348.03;;;-141.97;47.46
7018;BME280;3549;42.162;24.726;2023-07-20T03:59:28;47324.97;;;-141.97;47.43
7018;BME280;3549;42.162;24.726;2023-07-20T04:01:54;47334.56;;;-141.97;47.55
7018;BME280;3549;42.162;24.726;2023-07-20T04:04:19;47353.78;;;-141.97;47.81
7018;BME280;3549;42.162;24.726;2023-07-20T04:06:45;47338.41;;;-141.97;47.63
7018;BME280;3549;42.162;24.726;2023-07-20T04:09:11;47332.66;;;-141.97;48.06
7018;BME280;3549;42.162;24.726;2023-07-20T04:11:37;47380.69;;;-141.97;49.19
7018;BME280;3549;42.162;24.726;2023-07-20T04:14:02;47330.72;;;-141.97;48.87
7018;BME280;3549;42.162;24.726;2023-07-20T04:16:28;47315.34;;;-141.97;49.28
7018;BME280;3549;42.162;24.726;2023-07-20T04:18:56;47328.81;;;-141.97;49.10
7018;BME280;3549;42.162;24.726;2023-07-20T04:21:22;47334.56;;;-141.97;47.05
7018;BME280;3549;42.162;24.726;2023-07-20T04:23:47;47319.19;;;-141.97;46.30
7018;BME280;3549;42.162;24.726;2023-07-20T04:26:13;47330.72;;;-141.97;45.90
7018;BME280;3549;42.162;24.726;2023-07-20T04:28:40;47321.13;;;-141.97;46.05
7018;BME280;3549;42.162;24.726;2023-07-20T04:31:14;47346.09;;;-141.97;45.98
7018;BME280;3549;42.162;24.726;2023-07-20T04:33:39;47317.28;;;-141.97;46.30
7018;BME280;3549;42.162;24.726;2023-07-20T04:36:05;47319.19;;;-141.97;45.52
7018;BME280;3549;42.162;24.726;2023-07-20T04:38:31;47323.03;;;-141.97;45.04
7018;BME280;3549;42.162;24.726;2023-07-20T04:40:56;47349.94;;;-141.97;45.20
7018;BME280;3549;42.162;24.726;2023-07-20T04:43:22;47496.00;;;-141.97;45.12
7018;BME280;3549;42.162;24.726;2023-07-20T04:45:47;47311.50;;;-141.97;44.97
7018;BME280;3549;42.162;24.726;2023-07-20T04:48:14;47299.97;;;-141.97;45.05
7018;BME280;3549;42.162;24.726;2023-07-20T04:50:41;47303.81;;;-141.97;45.32
7018;BME280;3549;42.162;24.726;2023-07-20T04:53:08;47319.19;;;-141.97;45.99
7018;BME280;3549;42.162;24.726;2023-07-20T04:55:35;47326.88;;;-141.97;46.07
7018;BME280;3549;42.162;24.726;2023-07-20T04:58:02;47275.00;;;-141.97;46.30
7018;BME280;3549;42.162;24.726;2023-07-20T05:00:29;47290.38;;;-141.97;45.87
7018;BME280;3549;42.162;24.726;2023-07-20T05:02:55;47324.97;;;-141.97;45.96
7018;BME280;3549;42.162;24.726;2023-07-20T05:05:21;47303.81;;;-141.97;45.99
7018;BME280;3549;42.162;24.726;2023-07-20T05:07:46;47173.13;;;-141.97;45.93
7018;BME280;3549;42.162;24.726;2023-07-20T05:10:11;47309.59;;;-141.97;46.40
7018;BME280;3549;42.162;24.726;2023-07-20T05:12:37;47401.84;;;-141.97;46.15
7018;BME280;3549;42.162;24.726;2023-07-20T05:15:03;47307.66;;;-141.97;45.78
7018;BME280;3549;42.162;24.726;2023-07-20T05:17:28;47317.28;;;-141.97;45.46
7018;BME280;3549;42.162;24.726;2023-07-20T05:19:54;47294.22;;;-141.97;44.93
7018;BME280;3549;42.162;24.726;2023-07-20T05:22:20;47307.66;;;-141.97;44.71
7018;BME280;3549;42.162;24.726;2023-07-20T05:24:45;47361.47;;;-141.97;44.96
7018;BME280;3549;42.162;24.726;2023-07-20T05:27:10;47311.50;;;-141.97;44.87
7018;BME280;3549;42.162;24.726;2023-07-20T05:29:36;47317.28;;;-141.97;44.64
7018;BME280;3549;42.162;24.726;2023-07-20T05:32:01;47292.28;;;-141.97;44.54
7018;BME280;3549;42.162;24.726;2023-07-20T05:34:28;47275.00;;;-141.97;44.47
7018;BME280;3549;42.162;24.726;2023-07-20T05:38:14;47309.59;;;-141.97;44.30
7018;BME280;3549;42.162;24.726;2023-07-20T05:40:44;47301.91;;;-141.97;44.16
7018;BME280;3549;42.162;24.726;2023-07-20T05:43:10;47223.09;;;-141.97;44.13
7018;BME280;3549;42.162;24.726;2023-07-20T05:45:36;47269.22;;;-141.97;43.58
7018;BME280;3549;42.162;24.726;2023-07-20T05:48:03;47324.97;;;-141.97;43.44
7018;BME280;3549;42.162;24.726;2023-07-20T05:50:28;47275.00;;;-141.97;43.49
7018;BME280;3549;42.162;24.726;2023-07-20T05:52:54;47288.44;;;-141.97;42.72
7018;BME280;3549;42.162;24.726;2023-07-20T05:55:20;47269.22;;;-141.97;41.90
7018;BME280;3549;42.162;24.726;2023-07-20T05:57:46;47261.53;;;-141.97;41.96
7018;BME280;3549;42.162;24.726;2023-07-20T06:00:13;47253.84;;;-141.97;41.50
7018;BME280;3549;42.162;24.726;2023-07-20T06:02:39;47284.59;;;-141.97;41.48
7018;BME280;3549;42.162;24.726;2023-07-20T06:05:06;47292.28;;;-141.97;40.78
7018;BME280;3549;42.162;24.726;2023-07-20T06:07:37;47294.22;;;-141.97;40.65
7018;BME280;3549;42.162;24.726;2023-07-20T06:10:02;47215.41;;;-141.97;40.05
7018;BME280;3549;42.162;24.726;2023-07-20T06:12:28;47246.16;;;-141.97;39.56
7018;BME280;3549;42.162;24.726;2023-07-20T06:14:53;47255.78;;;-141.97;39.41
7018;BME280;3549;42.162;24.726;2023-07-20T06:17:19;47288.44;;;-141.97;39.50
7018;BME280;3549;42.162;24.726;2023-07-20T06:19:44;47246.16;;;-141.97;39.18
7018;BME280;3549;42.162;24.726;2023-07-20T06:22:10;47251.94;;;-141.97;38.85
7018;BME280;3549;42.162;24.726;2023-07-20T06:24:35;47242.31;;;-141.97;38.74
7018;BME280;3549;42.162;24.726;2023-07-20T06:27:01;47226.94;;;-141.97;39.37
7018;BME280;3549;42.162;24.726;2023-07-20T06:29:26;47284.59;;;-141.97;38.50
7018;BME280;3549;42.162;24.726;2023-07-20T06:31:51;47286.53;;;-141.97;38.57
7018;BME280;3549;42.162;24.726;2023-07-20T06:34:17;47248.09;;;-141.97;38.00
7018;BME280;3549;42.162;24.726;2023-07-20T06:36:42;47240.41;;;-141.97;37.80
7018;BME280;3549;42.162;24.726;2023-07-20T06:39:08;47303.81;;;-141.97;37.88
7018;BME280;3549;42.162;24.726;2023-07-20T06:41:33;47207.72;;;-141.97;37.74
7018;BME280;3549;42.162;24.726;2023-07-20T06:43:59;47273.06;;;-141.97;38.00
7018;BME280;3549;42.162;24.726;2023-07-20T06:46:27;47273.06;;;-141.97;37.57
7018;BME280;3549;42.162;24.726;2023-07-20T06:48:53;47226.94;;;-141.97;38.61
7018;BME280;3549;42.162;24.726;2023-07-20T06:51:19;47246.16;;;-141.97;37.83
7018;BME280;3549;42.162;24.726;2023-07-20T06:53:44;47251.94;;;-141.97;37.57
7018;BME280;3549;42.162;24.726;2023-07-20T06:56:10;47217.34;;;-141.97;36.75
7018;BME280;3549;42.162;24.726;2023-07-20T06:58:36;47207.72;;;-141.97;35.86
7018;BME280;3549;42.162;24.726;2023-07-20T07:01:08;47242.31;;;-141.97;35.69
7018;BME280;3549;42.162;24.726;2023-07-20T07:03:33;47238.47;;;-141.97;35.80
7018;BME280;3549;42.162;24.726;2023-07-20T07:06:00;47244.25;;;-141.97;35.58
7018;BME280;3549;42.162;24.726;2023-07-20T07:08:25;47213.50;;;-141.97;36.15
7018;BME280;3549;42.162;24.726;2023-07-20T07:10:51;47223.09;;;-141.97;35.75
7018;BME280;3549;42.162;24.726;2023-07-20T07:13:17;47269.22;;;-141.97;36.07
7018;BME280;3549;42.162;24.726;2023-07-20T07:15:43;47319.19;;;-141.97;36.18
7018;BME280;3549;42.162;24.726;2023-07-20T07:18:08;47250.00;;;-141.97;35.86
7018;BME280;3549;42.162;24.726;2023-07-20T07:20:33;47250.00;;;-141.97;36.13
7018;BME280;3549;42.162;24.726;2023-07-20T07:22:59;47248.09;;;-141.97;36.20
7018;BME280;3549;42.162;24.726;2023-07-20T07:25:25;47203.88;;;-141.97;35.69
7018;BME280;3549;42.162;24.726;2023-07-20T07:27:53;47213.50;;;-141.97;34.92
7018;BME280;3549;42.162;24.726;2023-07-20T07:30:18;47409.53;;;-141.97;34.30
7018;BME280;3549;42.162;24.726;2023-07-20T07:32:44;47201.97;;;-141.97;34.50
7018;BME280;3549;42.162;24.726;2023-07-20T07:35:09;47228.88;;;-141.97;33.96
7018;BME280;3549;42.162;24.726;2023-07-20T07:37:34;47184.66;;;-141.97;34.08
7018;BME280;3549;42.162;24.726;2023-07-20T07:40:00;47200.03;;;-141.97;34.11
7018;BME280;3549;42.162;24.726;2023-07-20T07:42:25;47182.75;;;-141.97;33.78
7018;BME280;3549;42.162;24.726;2023-07-20T07:44:51;47201.97;;;-141.97;34.10
7018;BME280;3549;42.162;24.726;2023-07-20T07:47:16;47163.53;;;-141.97;33.98
7018;BME280;3549;42.162;24.726;2023-07-20T07:49:42;47296.13;;;-141.97;33.41
7018;BME280;3549;42.162;24.726;2023-07-20T07:52:08;47184.66;;;-141.97;33.00
7018;BME280;3549;42.162;24.726;2023-07-20T07:54:33;47148.16;;;-141.97;32.63
7018;BME280;3549;42.162;24.726;2023-07-20T07:56:59;47228.88;;;-141.97;32.86
7018;BME280;3549;42.162;24.726;2023-07-20T07:59:24;47176.97;;;-141.97;33.00
7018;BME280;3549;42.162;24.726;2023-07-20T08:01:50;47182.75;;;-141.97;33.08
7018;BME280;3549;42.162;24.726;2023-07-20T08:04:15;47142.38;;;-141.97;33.17
7018;BME280;3549;42.162;24.726;2023-07-20T08:06:40;47176.97;;;-141.97;33.06
7018;BME280;3549;42.162;24.726;2023-07-20T08:09:06;47190.44;;;-141.97;33.17
7018;BME280;3549;42.162;24.726;2023-07-20T08:11:31;47169.28;;;-141.97;33.43
7018;BME280;3549;42.162;24.726;2023-07-20T08:14:00;47211.56;;;-141.97;33.47
7018;BME280;3549;42.162;24.726;2023-07-20T08:16:26;47159.69;;;-141.97;33.38
7018;BME280;3549;42.162;24.726;2023-07-20T08:18:51;47173.13;;;-141.97;33.55
7018;BME280;3549;42.162;24.726;2023-07-20T08:21:16;47171.22;;;-141.97;33.20
7018;BME280;3549;42.162;24.726;2023-07-20T08:23:45;47146.22;;;-141.97;32.27
7018;BME280;3549;42.162;24.726;2023-07-20T08:26:11;47190.44;;;-141.97;33.20
7018;BME280;3549;42.162;24.726;2023-07-20T08:28:36;47159.69;;;-141.97;32.57
7018;BME280;3549;42.162;24.726;2023-07-20T08:31:02;47148.16;;;-141.97;32.36
7018;BME280;3549;42.162;24.726;2023-07-20T08:33:30;47092.41;;;-141.97;32.25
7018;BME280;3549;42.162;24.726;2023-07-20T08:35:58;47115.47;;;-141.97;32.08
7018;BME280;3549;42.162;24.726;2023-07-20T08:38:24;47155.84;;;-141.97;32.25
7018;BME280;3549;42.162;24.726;2023-07-20T08:40:51;47184.66;;;-141.97;31.27
7018;BME280;3549;42.162;24.726;2023-07-20T08:43:18;47138.53;;;-141.97;31.59
7018;BME280;3549;42.162;24.726;2023-07-20T08:45:44;47130.84;;;-141.97;31.79
7018;BME280;3549;42.162;24.726;2023-07-20T08:48:11;47069.34;;;-141.97;31.53
7018;BME280;3549;42.162;24.726;2023-07-20T08:50:38;47142.38;;;-141.97;31.47
7018;BME280;3549;42.162;24.726;2023-07-20T08:53:03;47132.78;;;-141.97;31.90
7018;BME280;3549;42.162;24.726;2023-07-20T08:55:29;47100.09;;;-141.97;31.79
7018;BME280;3549;42.162;24.726;2023-07-20T08:57:57;47148.16;;;-141.97;31.55
7018;BME280;3549;42.162;24.726;2023-07-20T09:00:24;47123.16;;;-141.97;31.85
7018;BME280;3549;42.162;24.726;2023-07-20T09:02:51;47150.06;;;-141.97;31.92
7018;BME280;3549;42.162;24.726;2023-07-20T09:05:18;47278.84;;;-141.97;31.06
7018;BME280;3549;42.162;24.726;2023-07-20T09:07:44;47123.16;;;-141.97;30.98
7018;BME280;3549;42.162;24.726;2023-07-20T09:10:09;47111.63;;;-141.97;30.89
7018;BME280;3549;42.162;24.726;2023-07-20T09:12:38;47142.38;;;-141.97;31.13
7018;BME280;3549;42.162;24.726;2023-07-20T09:15:05;47138.53;;;-141.97;30.83
7018;BME280;3549;42.162;24.726;2023-07-20T09:17:30;47009.78;;;-141.97;30.89
7018;BME280;3549;42.162;24.726;2023-07-20T09:19:56;47221.19;;;-141.97;30.49
7018;BME280;3549;42.162;24.726;2023-07-20T09:22:21;47090.50;;;-141.97;30.51
7018;BME280;3549;42.162;24.726;2023-07-20T09:24:47;47119.31;;;-141.97;30.62
7018;BME280;3549;42.162;24.726;2023-07-20T09:27:12;47088.56;;;-141.97;30.68
7018;BME280;3549;42.162;24.726;2023-07-20T09:29:51;47077.03;;;-141.97;29.94
7018;BME280;3549;42.162;24.726;2023-07-20T09:32:21;47100.09;;;-141.97;30.09
7018;BME280;3549;42.162;24.726;2023-07-20T09:34:47;47088.56;;;-141.97;30.29
7018;BME280;3549;42.162;24.726;2023-07-20T09:37:13;47092.41;;;-141.97;30.44
7018;BME280;3549;42.162;24.726;2023-07-20T09:39:45;47127.00;;;-141.97;30.86
7018;BME280;3549;42.162;24.726;2023-07-20T09:42:14;47121.25;;;-141.97;30.85
7018;BME280;3549;42.162;24.726;2023-07-20T09:44:42;47100.09;;;-141.97;30.51
7018;BME280;3549;42.162;24.726;2023-07-20T09:47:08;47100.09;;;-141.97;30.25
7018;BME280;3549;42.162;24.726;2023-07-20T09:49:39;47057.81;;;-141.97;30.31
7018;BME280;3549;42.162;24.726;2023-07-20T09:52:05;47365.31;;;-141.97;30.01
7018;BME280;3549;42.162;24.726;2023-07-20T09:54:31;47075.13;;;-141.97;30.15
7018;BME280;3549;42.162;24.726;2023-07-20T09:56:58;47340.34;;;-141.97;30.53
7018;BME280;3549;42.162;24.726;2023-07-20T09:59:23;47109.72;;;-141.97;30.03
7018;BME280;3549;42.162;24.726;2023-07-20T10:01:49;47084.72;;;-141.97;30.23
7018;BME280;3549;42.162;24.726;2023-07-20T10:04:16;47100.09;;;-141.97;30.10
7018;BME280;3549;42.162;24.726;2023-07-20T10:06:46;47042.44;;;-141.97;29.71
7018;BME280;3549;42.162;24.726;2023-07-20T10:09:15;47125.09;;;-141.97;30.00
7018;BME280;3549;42.162;24.726;2023-07-20T10:11:45;47050.13;;;-141.97;29.39
7018;BME280;3549;42.162;24.726;2023-07-20T10:14:12;47055.91;;;-141.97;29.03
7018;BME280;3549;42.162;24.726;2023-07-20T10:16:44;47121.25;;;-141.97;29.69
7018;BME280;3549;42.162;24.726;2023-07-20T10:19:26;47065.50;;;-141.97;30.54
7018;BME280;3549;42.162;24.726;2023-07-20T10:22:12;47138.53;;;-141.97;30.94
7018;BME280;3549;42.162;24.726;2023-07-20T10:24:39;47130.84;;;-141.97;30.30
7018;BME280;3549;42.162;24.726;2023-07-20T10:27:05;47096.25;;;-141.97;29.74
7018;BME280;3549;42.162;24.726;2023-07-20T10:29:31;47119.31;;;-141.97;29.68
7018;BME280;3549;42.162;24.726;2023-07-20T10:31:57;47092.41;;;-141.97;29.48
7018;BME280;3549;42.162;24.726;2023-07-20T10:34:23;47090.50;;;-141.97;29.28
7018;BME280;3549;42.162;24.726;2023-07-20T10:36:49;47088.56;;;-141.97;29.14
7018;BME280;3549;42.162;24.726;2023-07-20T10:39:33;47092.41;;;-141.97;29.15
7018;BME280;3549;42.162;24.726;2023-07-20T10:42:08;47073.19;;;-141.97;28.75
7018;BME280;3549;42.162;24.726;2023-07-20T10:44:33;47094.34;;;-141.97;28.78
7018;BME280;3549;42.162;24.726;2023-07-20T10:47:00;47065.50;;;-141.97;28.14
7018;BME280;3549;42.162;24.726;2023-07-20T10:49:26;47055.91;;;-141.97;28.58
7018;BME280;3549;42.162;24.726;2023-07-20T10:51:57;47127.00;;;-141.97;28.00
7018;BME280;3549;42.162;24.726;2023-07-20T10:56:49;47113.56;;;-141.97;28.83
7018;BME280;3549;42.162;24.726;2023-07-20T11:01:50;47096.25;;;-141.97;28.45
7018;BME280;3549;42.162;24.726;2023-07-20T11:04:44;47069.34;;;-141.97;28.35
7018;BME280;3549;42.162;24.726;2023-07-20T11:07:10;47105.88;;;-141.97;28.17
7018;BME280;3549;42.162;24.726;2023-07-20T11:09:37;47096.25;;;-141.97;28.13
7018;BME280;3549;42.162;24.726;2023-07-20T11:12:13;47077.03;;;-141.97;28.24
7018;BME280;3549;42.162;24.726;2023-07-20T11:14:55;47130.84;;;-141.97;28.30
7018;BME280;3549;42.162;24.726;2023-07-20T11:17:29;47077.03;;;-141.97;28.28
7018;BME280;3549;42.162;24.726;2023-07-20T11:19:59;47090.50;;;-141.97;28.52
7018;BME280;3549;42.162;24.726;2023-07-20T11:22:30;47090.50;;;-141.97;28.70
7018;BME280;3549;42.162;24.726;2023-07-20T11:24:57;47061.66;;;-141.97;28.29
7018;BME280;3549;42.162;24.726;2023-07-20T11:27:22;47063.59;;;-141.97;28.26
7018;BME280;3549;42.162;24.726;2023-07-20T11:29:48;47061.66;;;-141.97;27.73
7018;BME280;3549;42.162;24.726;2023-07-20T11:32:20;47052.06;;;-141.97;27.85
7018;BME280;3549;42.162;24.726;2023-07-20T11:34:47;47069.34;;;-141.97;27.83
7018;BME280;3549;42.162;24.726;2023-07-20T11:37:13;47052.06;;;-141.97;27.54
7018;BME280;3549;42.162;24.726;2023-07-20T11:39:38;47046.28;;;-141.97;27.24
7018;BME280;3549;42.162;24.726;2023-07-20T11:42:05;47069.34;;;-141.97;27.51
7018;BME280;3549;42.162;24.726;2023-07-20T11:44:31;47057.81;;;-141.97;27.07
7018;BME280;3549;42.162;24.726;2023-07-20T11:49:29;46996.31;;;-141.97;26.03
7018;BME280;3549;42.162;24.726;2023-07-20T11:51:56;46980.94;;;-141.97;26.10
7018;BME280;3549;42.162;24.726;2023-07-20T11:54:23;46904.06;;;-141.97;25.46
7018;BME280;3549;42.162;24.726;2023-07-20T11:56:53;46969.41;;;-141.97;25.77
7018;BME280;3549;42.162;24.726;2023-07-20T11:59:19;46996.31;;;-141.97;26.89
7018;BME280;3549;42.162;24.726;2023-07-20T12:01:44;47029.00;;;-141.97;27.18
7018;BME280;3549;42.162;24.726;2023-07-20T12:04:10;47005.94;;;-141.97;26.81
7018;BME280;3549;42.162;24.726;2023-07-20T12:06:35;46996.31;;;-141.97;26.43
7018;BME280;3549;42.162;24.726;2023-07-20T12:09:01;46948.28;;;-141.97;25.92
7018;BME280;3549;42.162;24.726;2023-07-20T12:11:36;46961.72;;;-141.97;25.42
7018;BME280;3549;42.162;24.726;2023-07-20T12:14:03;46980.94;;;-141.97;25.70
7018;BME280;3549;42.162;24.726;2023-07-20T12:16:30;46915.59;;;-141.97;25.46
7018;BME280;3549;42.162;24.726;2023-07-20T12:19:06;46946.34;;;-141.97;25.15
7018;BME280;3549;42.162;24.726;2023-07-20T12:21:34;46892.56;;;-141.97;24.97
7018;BME280;3549;42.162;24.726;2023-07-20T12:24:02;46917.53;;;-141.97;25.07
7018;BME280;3549;42.162;24.726;2023-07-20T12:26:29;46877.19;;;-141.97;24.61
7018;BME280;3549;42.162;24.726;2023-07-20T12:28:55;46902.16;;;-141.97;25.08
7018;BME280;3549;42.162;24.726;2023-07-20T12:31:21;46938.66;;;-141.97;24.79
7018;BME280;3549;42.162;24.726;2023-07-20T12:33:48;46917.53;;;-141.97;24.65
7018;BME280;3549;42.162;24.726;2023-07-20T12:36:13;46925.22;;;-141.97;25.11
7018;BME280;3549;42.162;24.726;2023-07-20T12:38:38;47363.41;;;-141.97;25.89
7018;BME280;3549;42.162;24.726;2023-07-20T12:41:04;46942.50;;;-141.97;25.68
7018;BME280;3549;42.162;24.726;2023-07-20T12:43:29;46961.72;;;-141.97;25.92
7018;BME280;3549;42.162;24.726;2023-07-20T12:45:57;46965.56;;;-141.97;26.26
7018;BME280;3549;42.162;24.726;2023-07-20T12:48:22;46975.19;;;-141.97;26.03
7018;BME280;3549;42.162;24.726;2023-07-20T12:50:48;47053.97;;;-141.97;25.64
7018;BME280;3549;42.162;24.726;2023-07-20T12:53:14;46959.81;;;-141.97;25.75
7018;BME280;3549;42.162;24.726;2023-07-20T12:55:40;46977.09;;;-141.97;26.18
7018;BME280;3549;42.162;24.726;2023-07-20T12:58:07;46911.75;;;-141.97;25.54
7018;BME280;3549;42.162;24.726;2023-07-20T13:00:32;46957.88;;;-141.97;25.66
7018;BME280;3549;42.162;24.726;2023-07-20T13:02:58;46950.19;;;-141.97;25.59
7018;BME280;3549;42.162;24.726;2023-07-20T13:05:23;47000.16;;;-141.97;26.44
7018;BME280;3549;42.162;24.726;2023-07-20T13:07:49;46944.44;;;-141.97;26.69